MTN8909 TJSJ-TAPA
Flight info
| Callsign | MTN8909 |
|---|---|
| Flight time | 1h 35m |
| Altitude | 13000 |
| Route | SJU RTE2 COY G633 ANU |
| Aircraft | C208/L-SDFGR/C |
Departure
| Time | 2026-04-25 17:30 |
|---|---|
| Airport | Luis Munoz Marin International Airport (TJSJ) |
Arrival
| Time | 2026-04-25 19:05 |
|---|---|
| Airport | V. C. Bird International Airport (TAPA) |
| Time | Latitude | Longitude | Altitude | Speed | Heading |
|---|---|---|---|---|---|
| 2026-04-25 17:14 | 18.43785 | -65.99431 | -25 ft | 0 kts | 90° |
| 2026-04-25 17:20 | 18.43784 | -65.99425 | -25 ft | 1 kts | 102° |
| 2026-04-25 17:20 | 18.43784 | -65.99424 | -25 ft | 0 kts | 102° |
| 2026-04-25 17:20 | 18.43785 | -65.99429 | -25 ft | 2 kts | 92° |
| 2026-04-25 17:22 | 18.43785 | -65.99428 | -25 ft | 0 kts | 96° |
| 2026-04-25 17:22 | 18.43783 | -65.99426 | -25 ft | 1 kts | 140° |
| 2026-04-25 17:23 | 18.43763 | -65.99443 | -25 ft | 8 kts | 224° |
| 2026-04-25 17:23 | 18.43702 | -65.99484 | -25 ft | 13 kts | 206° |
| 2026-04-25 17:23 | 18.43643 | -65.99532 | -25 ft | 7 kts | 234° |
| 2026-04-25 17:23 | 18.43607 | -65.99549 | -25 ft | 8 kts | 179° |
| 2026-04-25 17:24 | 18.43524 | -65.99548 | -25 ft | 15 kts | 179° |
| 2026-04-25 17:24 | 18.43464 | -65.99633 | -30 ft | 22 kts | 270° |
| 2026-04-25 17:24 | 18.43463 | -65.99805 | -31 ft | 25 kts | 270° |
| 2026-04-25 17:24 | 18.43465 | -65.99981 | -30 ft | 24 kts | 270° |
| 2026-04-25 17:25 | 18.43465 | -66.00175 | -33 ft | 27 kts | 271° |
| 2026-04-25 17:25 | 18.43467 | -66.00351 | -36 ft | 21 kts | 269° |
| 2026-04-25 17:25 | 18.43466 | -66.00496 | -42 ft | 21 kts | 269° |
| 2026-04-25 17:25 | 18.43467 | -66.00672 | -45 ft | 27 kts | 271° |
| 2026-04-25 17:26 | 18.43467 | -66.00886 | -29 ft | 31 kts | 269° |
| 2026-04-25 17:26 | 18.43466 | -66.01124 | -32 ft | 32 kts | 271° |
| 2026-04-25 17:26 | 18.43467 | -66.01303 | -32 ft | 23 kts | 270° |
| 2026-04-25 17:26 | 18.43574 | -66.01359 | -40 ft | 17 kts | 1° |
| 2026-04-25 17:27 | 18.43709 | -66.01360 | -33 ft | 23 kts | 359° |
| 2026-04-25 17:27 | 18.43824 | -66.01363 | -41 ft | 2 kts | 351° |
| 2026-04-25 17:28 | 18.43837 | -66.01366 | -41 ft | 8 kts | 341° |
| 2026-04-25 17:28 | 18.43923 | -66.01362 | -56 ft | 19 kts | 52° |
| 2026-04-25 17:28 | 18.43938 | -66.01333 | -43 ft | 0 kts | 66° |
| 2026-04-25 17:29 | 18.43970 | -66.01259 | -45 ft | 36 kts | 66° |
| 2026-04-25 17:29 | 18.44136 | -66.00846 | -33 ft | 83 kts | 69° |
| 2026-04-25 17:29 | 18.44401 | -66.00233 | 127 ft | 97 kts | 68° |
| 2026-04-25 17:29 | 18.44689 | -65.99601 | 359 ft | 97 kts | 67° |
| 2026-04-25 17:30 | 18.44998 | -65.98918 | 448 ft | 110 kts | 72° |
| 2026-04-25 17:30 | 18.45243 | -65.98107 | 550 ft | 124 kts | 76° |
| 2026-04-25 17:30 | 18.45483 | -65.97194 | 668 ft | 135 kts | 78° |
| 2026-04-25 17:30 | 18.45720 | -65.96226 | 859 ft | 136 kts | 79° |
| 2026-04-25 17:31 | 18.45955 | -65.95261 | 1060 ft | 135 kts | 79° |
| 2026-04-25 17:31 | 18.46185 | -65.94305 | 1265 ft | 134 kts | 79° |
| 2026-04-25 17:31 | 18.46417 | -65.93356 | 1461 ft | 133 kts | 79° |
| 2026-04-25 17:31 | 18.46643 | -65.92409 | 1669 ft | 133 kts | 79° |
| 2026-04-25 17:32 | 18.46866 | -65.91471 | 1889 ft | 132 kts | 79° |
| 2026-04-25 17:32 | 18.47088 | -65.90537 | 2113 ft | 131 kts | 79° |
| 2026-04-25 17:32 | 18.47311 | -65.89609 | 2338 ft | 131 kts | 79° |
| 2026-04-25 17:32 | 18.47532 | -65.88678 | 2562 ft | 131 kts | 79° |
| 2026-04-25 17:33 | 18.47757 | -65.87749 | 2789 ft | 131 kts | 79° |
| 2026-04-25 17:33 | 18.47985 | -65.86824 | 3015 ft | 131 kts | 79° |
| 2026-04-25 17:33 | 18.48212 | -65.85900 | 3242 ft | 131 kts | 79° |
| 2026-04-25 17:33 | 18.48440 | -65.84969 | 3465 ft | 131 kts | 79° |
| 2026-04-25 17:34 | 18.48673 | -65.84038 | 3691 ft | 131 kts | 79° |
| 2026-04-25 17:34 | 18.48908 | -65.83107 | 3914 ft | 132 kts | 79° |
| 2026-04-25 17:34 | 18.49143 | -65.82167 | 4114 ft | 134 kts | 79° |
| 2026-04-25 17:34 | 18.49369 | -65.81216 | 4311 ft | 134 kts | 85° |
| 2026-04-25 17:35 | 18.49207 | -65.80301 | 4505 ft | 126 kts | 125° |
| 2026-04-25 17:35 | 18.48655 | -65.79593 | 4710 ft | 125 kts | 137° |
| 2026-04-25 17:35 | 18.48063 | -65.78918 | 4916 ft | 126 kts | 135° |
| 2026-04-25 17:35 | 18.47497 | -65.78210 | 5115 ft | 127 kts | 133° |
| 2026-04-25 17:36 | 18.46951 | -65.77477 | 5316 ft | 128 kts | 132° |
| 2026-04-25 17:36 | 18.46417 | -65.76727 | 5517 ft | 129 kts | 130° |
| 2026-04-25 17:36 | 18.45890 | -65.75961 | 5717 ft | 129 kts | 130° |
| 2026-04-25 17:36 | 18.45364 | -65.75191 | 5918 ft | 130 kts | 130° |
| 2026-04-25 17:37 | 18.44841 | -65.74422 | 6118 ft | 129 kts | 130° |
| 2026-04-25 17:37 | 18.44319 | -65.73655 | 6317 ft | 129 kts | 130° |
| 2026-04-25 17:37 | 18.43799 | -65.72887 | 6516 ft | 128 kts | 130° |
| 2026-04-25 17:37 | 18.43283 | -65.72129 | 6715 ft | 127 kts | 130° |
| 2026-04-25 17:38 | 18.42771 | -65.71375 | 6911 ft | 127 kts | 130° |
| 2026-04-25 17:38 | 18.42597 | -65.71119 | 6963 ft | 127 kts | 130° |
| 2026-04-25 17:38 | 18.41736 | -65.69855 | 7254 ft | 128 kts | 130° |
| 2026-04-25 17:38 | 18.41215 | -65.69087 | 7431 ft | 129 kts | 130° |
| 2026-04-25 17:39 | 18.40692 | -65.68316 | 7606 ft | 130 kts | 130° |
| 2026-04-25 17:39 | 18.40168 | -65.67544 | 7775 ft | 130 kts | 130° |
| 2026-04-25 17:39 | 18.39638 | -65.66766 | 7958 ft | 131 kts | 130° |
| 2026-04-25 17:39 | 18.39110 | -65.65988 | 8133 ft | 131 kts | 130° |
| 2026-04-25 17:40 | 18.38581 | -65.65211 | 8308 ft | 131 kts | 130° |
| 2026-04-25 17:40 | 18.38052 | -65.64432 | 8484 ft | 131 kts | 130° |
| 2026-04-25 17:40 | 18.37524 | -65.63651 | 8659 ft | 131 kts | 130° |
| 2026-04-25 17:40 | 18.36994 | -65.62870 | 8834 ft | 131 kts | 130° |
| 2026-04-25 17:41 | 18.36462 | -65.62087 | 9026 ft | 131 kts | 130° |
| 2026-04-25 17:41 | 18.35929 | -65.61305 | 9189 ft | 131 kts | 130° |
| 2026-04-25 17:41 | 18.35397 | -65.60521 | 9362 ft | 132 kts | 130° |
| 2026-04-25 17:41 | 18.34864 | -65.59738 | 9538 ft | 131 kts | 131° |
| 2026-04-25 17:42 | 18.34331 | -65.58958 | 9711 ft | 131 kts | 130° |
| 2026-04-25 17:42 | 18.33799 | -65.58175 | 9885 ft | 131 kts | 130° |
| 2026-04-25 17:42 | 18.33270 | -65.57398 | 10028 ft | 132 kts | 130° |
| 2026-04-25 17:42 | 18.32734 | -65.56610 | 10151 ft | 134 kts | 130° |
| 2026-04-25 17:43 | 18.32189 | -65.55810 | 10276 ft | 135 kts | 130° |
| 2026-04-25 17:43 | 18.31638 | -65.54999 | 10402 ft | 136 kts | 130° |
| 2026-04-25 17:43 | 18.31084 | -65.54186 | 10528 ft | 138 kts | 130° |
| 2026-04-25 17:43 | 18.30525 | -65.53364 | 10655 ft | 138 kts | 130° |
| 2026-04-25 17:44 | 18.29965 | -65.52541 | 10780 ft | 139 kts | 130° |
| 2026-04-25 17:44 | 18.29402 | -65.51712 | 10905 ft | 140 kts | 130° |
| 2026-04-25 17:44 | 18.28835 | -65.50879 | 11029 ft | 140 kts | 130° |
| 2026-04-25 17:44 | 18.28266 | -65.50043 | 11156 ft | 141 kts | 130° |
| 2026-04-25 17:45 | 18.27695 | -65.49204 | 11281 ft | 141 kts | 130° |
| 2026-04-25 17:45 | 18.27502 | -65.48920 | 11323 ft | 141 kts | 130° |
| 2026-04-25 17:45 | 18.26539 | -65.47527 | 11529 ft | 142 kts | 133° |
| 2026-04-25 17:45 | 18.25942 | -65.46700 | 11655 ft | 142 kts | 133° |
| 2026-04-25 17:46 | 18.25352 | -65.45864 | 11780 ft | 143 kts | 132° |
| 2026-04-25 17:46 | 18.24963 | -65.45304 | 11864 ft | 143 kts | 131° |
| 2026-04-25 17:46 | 18.24379 | -65.44456 | 11983 ft | 144 kts | 131° |
| 2026-04-25 17:46 | 18.23794 | -65.43598 | 12114 ft | 145 kts | 131° |
| 2026-04-25 17:47 | 18.23208 | -65.42737 | 12240 ft | 145 kts | 131° |
| 2026-04-25 17:47 | 18.22621 | -65.41873 | 12364 ft | 145 kts | 131° |
| 2026-04-25 17:47 | 18.22033 | -65.41011 | 12488 ft | 146 kts | 131° |
| 2026-04-25 17:47 | 18.21444 | -65.40143 | 12614 ft | 146 kts | 131° |
| 2026-04-25 17:48 | 18.20263 | -65.38407 | 12864 ft | 146 kts | 132° |
| 2026-04-25 17:48 | 18.19671 | -65.37538 | 12988 ft | 146 kts | 132° |
| 2026-04-25 17:48 | 18.19057 | -65.36643 | 12992 ft | 155 kts | 132° |
| 2026-04-25 17:49 | 18.18405 | -65.35708 | 12993 ft | 161 kts | 132° |
| 2026-04-25 17:49 | 18.17729 | -65.34743 | 12993 ft | 166 kts | 132° |
| 2026-04-25 17:49 | 18.17039 | -65.33754 | 12991 ft | 169 kts | 132° |
| 2026-04-25 17:49 | 18.16340 | -65.32747 | 12989 ft | 171 kts | 132° |
| 2026-04-25 17:50 | 18.15650 | -65.31727 | 12988 ft | 172 kts | 130° |
| 2026-04-25 17:50 | 18.14964 | -65.30690 | 12988 ft | 173 kts | 130° |
| 2026-04-25 17:50 | 18.14273 | -65.29654 | 12988 ft | 173 kts | 130° |
| 2026-04-25 17:50 | 18.13577 | -65.28619 | 12996 ft | 174 kts | 131° |
| 2026-04-25 17:51 | 18.12871 | -65.27583 | 12990 ft | 174 kts | 131° |
| 2026-04-25 17:51 | 18.12164 | -65.26548 | 12987 ft | 174 kts | 131° |
| 2026-04-25 17:51 | 18.11456 | -65.25512 | 12986 ft | 174 kts | 131° |
| 2026-04-25 17:51 | 18.10751 | -65.24479 | 12988 ft | 174 kts | 131° |
| 2026-04-25 17:52 | 18.10048 | -65.23447 | 12988 ft | 174 kts | 131° |
| 2026-04-25 17:52 | 18.09571 | -65.22749 | 12988 ft | 174 kts | 131° |
| 2026-04-25 17:52 | 18.08641 | -65.21386 | 12989 ft | 173 kts | 131° |
| 2026-04-25 17:52 | 18.07938 | -65.20357 | 12990 ft | 173 kts | 131° |
| 2026-04-25 17:53 | 18.07234 | -65.19330 | 12990 ft | 173 kts | 131° |
| 2026-04-25 17:53 | 18.06531 | -65.18301 | 12989 ft | 173 kts | 131° |
| 2026-04-25 17:53 | 18.05828 | -65.17273 | 12989 ft | 173 kts | 131° |
| 2026-04-25 17:53 | 18.05125 | -65.16245 | 12989 ft | 173 kts | 131° |
| 2026-04-25 17:54 | 18.04422 | -65.15218 | 12989 ft | 173 kts | 131° |
| 2026-04-25 17:54 | 18.03718 | -65.14190 | 12990 ft | 173 kts | 131° |
| 2026-04-25 17:54 | 18.03016 | -65.13163 | 12990 ft | 173 kts | 131° |
| 2026-04-25 17:54 | 18.02314 | -65.12137 | 12991 ft | 173 kts | 131° |
| 2026-04-25 17:55 | 18.01612 | -65.11111 | 12990 ft | 173 kts | 131° |
| 2026-04-25 17:55 | 18.00909 | -65.10086 | 12990 ft | 173 kts | 131° |
| 2026-04-25 17:55 | 18.00207 | -65.09060 | 12989 ft | 173 kts | 131° |
| 2026-04-25 17:55 | 17.99504 | -65.08034 | 12989 ft | 173 kts | 131° |
| 2026-04-25 17:56 | 17.98802 | -65.07010 | 12990 ft | 173 kts | 130° |
| 2026-04-25 17:56 | 17.98100 | -65.05986 | 12989 ft | 173 kts | 130° |
| 2026-04-25 17:56 | 17.97399 | -65.04962 | 12989 ft | 173 kts | 130° |
| 2026-04-25 17:56 | 17.96700 | -65.03938 | 12991 ft | 173 kts | 130° |
| 2026-04-25 17:57 | 17.95999 | -65.02917 | 12990 ft | 172 kts | 130° |
| 2026-04-25 17:57 | 17.95298 | -65.01895 | 12989 ft | 172 kts | 130° |
| 2026-04-25 17:57 | 17.94598 | -65.00874 | 12989 ft | 172 kts | 130° |
| 2026-04-25 17:57 | 17.94124 | -65.00182 | 12989 ft | 172 kts | 130° |
| 2026-04-25 17:58 | 17.93196 | -64.98829 | 12988 ft | 172 kts | 130° |
| 2026-04-25 17:58 | 17.92494 | -64.97806 | 12981 ft | 173 kts | 130° |
| 2026-04-25 17:58 | 17.91792 | -64.96783 | 12980 ft | 173 kts | 130° |
| 2026-04-25 17:58 | 17.91091 | -64.95762 | 12980 ft | 172 kts | 131° |
| 2026-04-25 17:59 | 17.90390 | -64.94740 | 12980 ft | 172 kts | 130° |
| 2026-04-25 17:59 | 17.89690 | -64.93719 | 12980 ft | 172 kts | 131° |
| 2026-04-25 17:59 | 17.88991 | -64.92700 | 12980 ft | 172 kts | 130° |
| 2026-04-25 17:59 | 17.88294 | -64.91684 | 12980 ft | 172 kts | 131° |
| 2026-04-25 18:00 | 17.87594 | -64.90665 | 12980 ft | 172 kts | 130° |
| 2026-04-25 18:00 | 17.86896 | -64.89648 | 12980 ft | 172 kts | 131° |
| 2026-04-25 18:00 | 17.86195 | -64.88627 | 12980 ft | 172 kts | 130° |
| 2026-04-25 18:00 | 17.85495 | -64.87609 | 12980 ft | 172 kts | 131° |
| 2026-04-25 18:01 | 17.84797 | -64.86592 | 12980 ft | 172 kts | 131° |
| 2026-04-25 18:01 | 17.84098 | -64.85575 | 12980 ft | 172 kts | 131° |
| 2026-04-25 18:01 | 17.83401 | -64.84559 | 12980 ft | 172 kts | 131° |
| 2026-04-25 18:01 | 17.82702 | -64.83543 | 12980 ft | 172 kts | 131° |
| 2026-04-25 18:02 | 17.82004 | -64.82528 | 12980 ft | 172 kts | 131° |
| 2026-04-25 18:02 | 17.81305 | -64.81513 | 12980 ft | 172 kts | 131° |
| 2026-04-25 18:02 | 17.80607 | -64.80498 | 12980 ft | 172 kts | 131° |
| 2026-04-25 18:02 | 17.79909 | -64.79481 | 12980 ft | 172 kts | 131° |
| 2026-04-25 18:03 | 17.79210 | -64.78466 | 12980 ft | 172 kts | 131° |
| 2026-04-25 18:03 | 17.78511 | -64.77450 | 12980 ft | 172 kts | 131° |
| 2026-04-25 18:03 | 17.77812 | -64.76435 | 12982 ft | 172 kts | 131° |
| 2026-04-25 18:03 | 17.77112 | -64.75421 | 12982 ft | 172 kts | 131° |
| 2026-04-25 18:04 | 17.76412 | -64.74405 | 12979 ft | 172 kts | 131° |
| 2026-04-25 18:04 | 17.75714 | -64.73391 | 12978 ft | 171 kts | 131° |
| 2026-04-25 18:04 | 17.75016 | -64.72374 | 12985 ft | 172 kts | 131° |
| 2026-04-25 18:04 | 17.74315 | -64.71357 | 12986 ft | 172 kts | 131° |
| 2026-04-25 18:05 | 17.73623 | -64.70328 | 12977 ft | 173 kts | 126° |
| 2026-04-25 18:05 | 17.73216 | -64.69132 | 12971 ft | 177 kts | 104° |
| 2026-04-25 18:05 | 17.72985 | -64.67871 | 12976 ft | 176 kts | 106° |
| 2026-04-25 18:05 | 17.72716 | -64.66624 | 12979 ft | 175 kts | 108° |
| 2026-04-25 18:06 | 17.72432 | -64.65380 | 12985 ft | 176 kts | 108° |
| 2026-04-25 18:06 | 17.72145 | -64.64130 | 12986 ft | 176 kts | 108° |
| 2026-04-25 18:06 | 17.71859 | -64.62875 | 12983 ft | 177 kts | 108° |
| 2026-04-25 18:06 | 17.71577 | -64.61615 | 12981 ft | 178 kts | 108° |
| 2026-04-25 18:07 | 17.71296 | -64.60355 | 12980 ft | 177 kts | 107° |
| 2026-04-25 18:07 | 17.71018 | -64.59097 | 12979 ft | 178 kts | 107° |
| 2026-04-25 18:07 | 17.70741 | -64.57837 | 12979 ft | 177 kts | 107° |
| 2026-04-25 18:07 | 17.70464 | -64.56581 | 12980 ft | 177 kts | 107° |
| 2026-04-25 18:08 | 17.70187 | -64.55323 | 12980 ft | 177 kts | 107° |
| 2026-04-25 18:08 | 17.69909 | -64.54064 | 12980 ft | 177 kts | 107° |
| 2026-04-25 18:08 | 17.69632 | -64.52804 | 12980 ft | 177 kts | 107° |
| 2026-04-25 18:08 | 17.69354 | -64.51543 | 12981 ft | 177 kts | 107° |
| 2026-04-25 18:09 | 17.69076 | -64.50287 | 12981 ft | 177 kts | 108° |
| 2026-04-25 18:09 | 17.68797 | -64.49026 | 12980 ft | 177 kts | 107° |
| 2026-04-25 18:09 | 17.68519 | -64.47767 | 12980 ft | 177 kts | 107° |
| 2026-04-25 18:09 | 17.68426 | -64.47342 | 12980 ft | 177 kts | 107° |
| 2026-04-25 18:10 | 17.67965 | -64.45252 | 12980 ft | 177 kts | 107° |
| 2026-04-25 18:10 | 17.67686 | -64.43994 | 12980 ft | 177 kts | 107° |
| 2026-04-25 18:10 | 17.67410 | -64.42741 | 12980 ft | 177 kts | 107° |
| 2026-04-25 18:10 | 17.67134 | -64.41489 | 12980 ft | 177 kts | 108° |
| 2026-04-25 18:11 | 17.66855 | -64.40232 | 12980 ft | 177 kts | 107° |
| 2026-04-25 18:11 | 17.66577 | -64.38973 | 12980 ft | 177 kts | 108° |
| 2026-04-25 18:11 | 17.66298 | -64.37719 | 12980 ft | 177 kts | 107° |
| 2026-04-25 18:11 | 17.66020 | -64.36460 | 12981 ft | 177 kts | 108° |
| 2026-04-25 18:12 | 17.65741 | -64.35205 | 12981 ft | 177 kts | 108° |
| 2026-04-25 18:12 | 17.65463 | -64.33948 | 12980 ft | 177 kts | 107° |
| 2026-04-25 18:12 | 17.65186 | -64.32691 | 12980 ft | 177 kts | 108° |
| 2026-04-25 18:12 | 17.64908 | -64.31434 | 12980 ft | 177 kts | 107° |
| 2026-04-25 18:13 | 17.64630 | -64.30177 | 12980 ft | 177 kts | 107° |
| 2026-04-25 18:13 | 17.64352 | -64.28919 | 12981 ft | 177 kts | 107° |
| 2026-04-25 18:13 | 17.64073 | -64.27660 | 12981 ft | 177 kts | 108° |
| 2026-04-25 18:14 | 17.63513 | -64.25138 | 12980 ft | 178 kts | 108° |
| 2026-04-25 18:14 | 17.63233 | -64.23878 | 12980 ft | 178 kts | 108° |
| 2026-04-25 18:14 | 17.62953 | -64.22617 | 12980 ft | 177 kts | 108° |
| 2026-04-25 18:14 | 17.62674 | -64.21359 | 12978 ft | 178 kts | 108° |
| 2026-04-25 18:15 | 17.62393 | -64.20097 | 12974 ft | 178 kts | 108° |
| 2026-04-25 18:15 | 17.62113 | -64.18835 | 12972 ft | 178 kts | 108° |
| 2026-04-25 18:15 | 17.61832 | -64.17573 | 12971 ft | 178 kts | 108° |
| 2026-04-25 18:15 | 17.61551 | -64.16313 | 12972 ft | 178 kts | 108° |
| 2026-04-25 18:16 | 17.61272 | -64.15057 | 12971 ft | 178 kts | 108° |
| 2026-04-25 18:16 | 17.60992 | -64.13799 | 12971 ft | 178 kts | 108° |
| 2026-04-25 18:16 | 17.60431 | -64.11276 | 12971 ft | 178 kts | 108° |
| 2026-04-25 18:17 | 17.60150 | -64.10012 | 12971 ft | 178 kts | 108° |
| 2026-04-25 18:17 | 17.59871 | -64.08752 | 12971 ft | 178 kts | 108° |
| 2026-04-25 18:17 | 17.59590 | -64.07492 | 12971 ft | 178 kts | 108° |
| 2026-04-25 18:17 | 17.59309 | -64.06232 | 12972 ft | 178 kts | 108° |
| 2026-04-25 18:18 | 17.59028 | -64.04971 | 12971 ft | 178 kts | 108° |
| 2026-04-25 18:18 | 17.58745 | -64.03710 | 12971 ft | 178 kts | 108° |
| 2026-04-25 18:18 | 17.58463 | -64.02448 | 12971 ft | 178 kts | 108° |
| 2026-04-25 18:18 | 17.58182 | -64.01187 | 12971 ft | 178 kts | 108° |
| 2026-04-25 18:19 | 17.57901 | -63.99927 | 12971 ft | 178 kts | 108° |
| 2026-04-25 18:19 | 17.57620 | -63.98667 | 12971 ft | 178 kts | 108° |
| 2026-04-25 18:19 | 17.57339 | -63.97407 | 12971 ft | 178 kts | 108° |
| 2026-04-25 18:19 | 17.57058 | -63.96147 | 12972 ft | 177 kts | 108° |
| 2026-04-25 18:20 | 17.56776 | -63.94889 | 12971 ft | 177 kts | 108° |
| 2026-04-25 18:20 | 17.56495 | -63.93634 | 12971 ft | 177 kts | 108° |
| 2026-04-25 18:20 | 17.56214 | -63.92375 | 12971 ft | 177 kts | 108° |
| 2026-04-25 18:20 | 17.55934 | -63.91121 | 12971 ft | 178 kts | 108° |
| 2026-04-25 18:21 | 17.55653 | -63.89863 | 12971 ft | 178 kts | 108° |
| 2026-04-25 18:21 | 17.55371 | -63.88610 | 12971 ft | 177 kts | 108° |
| 2026-04-25 18:21 | 17.55089 | -63.87353 | 12971 ft | 177 kts | 108° |
| 2026-04-25 18:21 | 17.54808 | -63.86095 | 12971 ft | 177 kts | 108° |
| 2026-04-25 18:22 | 17.54527 | -63.84835 | 12971 ft | 178 kts | 108° |
| 2026-04-25 18:22 | 17.54431 | -63.84409 | 12971 ft | 178 kts | 108° |
| 2026-04-25 18:22 | 17.53961 | -63.82317 | 12971 ft | 178 kts | 108° |
| 2026-04-25 18:22 | 17.53679 | -63.81058 | 12971 ft | 178 kts | 108° |
| 2026-04-25 18:23 | 17.53396 | -63.79800 | 12971 ft | 177 kts | 108° |
| 2026-04-25 18:23 | 17.53114 | -63.78539 | 12971 ft | 178 kts | 108° |
| 2026-04-25 18:23 | 17.52831 | -63.77280 | 12971 ft | 177 kts | 108° |
| 2026-04-25 18:23 | 17.52548 | -63.76022 | 12971 ft | 177 kts | 108° |
| 2026-04-25 18:24 | 17.52266 | -63.74764 | 12971 ft | 178 kts | 108° |
| 2026-04-25 18:24 | 17.51983 | -63.73506 | 12972 ft | 178 kts | 108° |
| 2026-04-25 18:24 | 17.51700 | -63.72248 | 12971 ft | 178 kts | 108° |
| 2026-04-25 18:24 | 17.51416 | -63.70990 | 12971 ft | 177 kts | 108° |
| 2026-04-25 18:25 | 17.51134 | -63.69734 | 12971 ft | 177 kts | 108° |
| 2026-04-25 18:25 | 17.50851 | -63.68479 | 12970 ft | 177 kts | 108° |
| 2026-04-25 18:25 | 17.50569 | -63.67223 | 12971 ft | 177 kts | 108° |
| 2026-04-25 18:25 | 17.50286 | -63.65966 | 12971 ft | 177 kts | 108° |
| 2026-04-25 18:26 | 17.50004 | -63.64707 | 12971 ft | 177 kts | 108° |
| 2026-04-25 18:26 | 17.49720 | -63.63450 | 12971 ft | 177 kts | 108° |
| 2026-04-25 18:26 | 17.49437 | -63.62193 | 12971 ft | 177 kts | 108° |
| 2026-04-25 18:26 | 17.49154 | -63.60936 | 12971 ft | 178 kts | 108° |
| 2026-04-25 18:27 | 17.48966 | -63.60104 | 12971 ft | 177 kts | 108° |
| 2026-04-25 18:27 | 17.48682 | -63.58848 | 12971 ft | 177 kts | 108° |
| 2026-04-25 18:27 | 17.48399 | -63.57591 | 12971 ft | 177 kts | 108° |
| 2026-04-25 18:27 | 17.48115 | -63.56332 | 12971 ft | 177 kts | 108° |
| 2026-04-25 18:28 | 17.47830 | -63.55077 | 12971 ft | 177 kts | 108° |
| 2026-04-25 18:28 | 17.47545 | -63.53821 | 12971 ft | 177 kts | 108° |
| 2026-04-25 18:28 | 17.47261 | -63.52566 | 12971 ft | 177 kts | 108° |
| 2026-04-25 18:29 | 17.46695 | -63.50054 | 12971 ft | 177 kts | 108° |
| 2026-04-25 18:29 | 17.46412 | -63.48799 | 12971 ft | 177 kts | 108° |
| 2026-04-25 18:30 | 17.45561 | -63.45038 | 12972 ft | 177 kts | 108° |
| 2026-04-25 18:30 | 17.45277 | -63.43782 | 12971 ft | 177 kts | 108° |
| 2026-04-25 18:30 | 17.44993 | -63.42527 | 12971 ft | 177 kts | 108° |
| 2026-04-25 18:30 | 17.44709 | -63.41271 | 12971 ft | 177 kts | 108° |
| 2026-04-25 18:31 | 17.44424 | -63.40015 | 12971 ft | 177 kts | 108° |
| 2026-04-25 18:31 | 17.44139 | -63.38756 | 12971 ft | 177 kts | 108° |
| 2026-04-25 18:31 | 17.43855 | -63.37502 | 12971 ft | 177 kts | 108° |
| 2026-04-25 18:31 | 17.43570 | -63.36243 | 12971 ft | 177 kts | 108° |
| 2026-04-25 18:32 | 17.43285 | -63.34987 | 12971 ft | 177 kts | 108° |
| 2026-04-25 18:32 | 17.42999 | -63.33729 | 12968 ft | 178 kts | 108° |
| 2026-04-25 18:32 | 17.42712 | -63.32471 | 12965 ft | 178 kts | 108° |
| 2026-04-25 18:32 | 17.42428 | -63.31211 | 12963 ft | 178 kts | 108° |
| 2026-04-25 18:33 | 17.42142 | -63.29954 | 12961 ft | 177 kts | 108° |
| 2026-04-25 18:33 | 17.41856 | -63.28700 | 12961 ft | 177 kts | 108° |
| 2026-04-25 18:33 | 17.41571 | -63.27447 | 12961 ft | 177 kts | 108° |
| 2026-04-25 18:33 | 17.41286 | -63.26192 | 12961 ft | 177 kts | 108° |
| 2026-04-25 18:34 | 17.41002 | -63.24937 | 12961 ft | 177 kts | 108° |
| 2026-04-25 18:34 | 17.40717 | -63.23682 | 12965 ft | 177 kts | 108° |
| 2026-04-25 18:34 | 17.40432 | -63.22426 | 12961 ft | 177 kts | 108° |
| 2026-04-25 18:34 | 17.40146 | -63.21171 | 12961 ft | 177 kts | 108° |
| 2026-04-25 18:35 | 17.39860 | -63.19918 | 12961 ft | 177 kts | 108° |
| 2026-04-25 18:35 | 17.39573 | -63.18662 | 12961 ft | 177 kts | 108° |
| 2026-04-25 18:35 | 17.39287 | -63.17409 | 12960 ft | 177 kts | 108° |
| 2026-04-25 18:35 | 17.39002 | -63.16154 | 12961 ft | 177 kts | 108° |
| 2026-04-25 18:36 | 17.38716 | -63.14901 | 12963 ft | 177 kts | 108° |
| 2026-04-25 18:36 | 17.38431 | -63.13650 | 12965 ft | 177 kts | 108° |
| 2026-04-25 18:36 | 17.38144 | -63.12395 | 12961 ft | 177 kts | 108° |
| 2026-04-25 18:36 | 17.37858 | -63.11139 | 12961 ft | 177 kts | 108° |
| 2026-04-25 18:37 | 17.37572 | -63.09890 | 12961 ft | 177 kts | 108° |
| 2026-04-25 18:37 | 17.37286 | -63.08635 | 12961 ft | 177 kts | 108° |
| 2026-04-25 18:37 | 17.37001 | -63.07384 | 12961 ft | 177 kts | 108° |
| 2026-04-25 18:37 | 17.36717 | -63.06133 | 12965 ft | 177 kts | 108° |
| 2026-04-25 18:38 | 17.36431 | -63.04884 | 12961 ft | 177 kts | 108° |
| 2026-04-25 18:38 | 17.36144 | -63.03628 | 12964 ft | 177 kts | 108° |
| 2026-04-25 18:38 | 17.35857 | -63.02373 | 12965 ft | 177 kts | 108° |
| 2026-04-25 18:38 | 17.35569 | -63.01118 | 12966 ft | 177 kts | 108° |
| 2026-04-25 18:39 | 17.35281 | -62.99863 | 12962 ft | 177 kts | 108° |
| 2026-04-25 18:39 | 17.34993 | -62.98604 | 12960 ft | 178 kts | 108° |
| 2026-04-25 18:39 | 17.34709 | -62.97348 | 12963 ft | 177 kts | 108° |
| 2026-04-25 18:39 | 17.34425 | -62.96091 | 12960 ft | 177 kts | 108° |
| 2026-04-25 18:40 | 17.34141 | -62.94834 | 12960 ft | 178 kts | 108° |
| 2026-04-25 18:40 | 17.33857 | -62.93576 | 12961 ft | 178 kts | 108° |
| 2026-04-25 18:40 | 17.33571 | -62.92319 | 12961 ft | 178 kts | 108° |
| 2026-04-25 18:40 | 17.33286 | -62.91061 | 12961 ft | 178 kts | 108° |
| 2026-04-25 18:41 | 17.33000 | -62.89802 | 12961 ft | 178 kts | 108° |
| 2026-04-25 18:41 | 17.32714 | -62.88545 | 12966 ft | 178 kts | 108° |
| 2026-04-25 18:41 | 17.32429 | -62.87291 | 12961 ft | 178 kts | 108° |
| 2026-04-25 18:41 | 17.32144 | -62.86034 | 12962 ft | 178 kts | 108° |
| 2026-04-25 18:42 | 17.31858 | -62.84780 | 12961 ft | 178 kts | 108° |
| 2026-04-25 18:42 | 17.31666 | -62.83933 | 12964 ft | 178 kts | 108° |
| 2026-04-25 18:42 | 17.31286 | -62.82267 | 12960 ft | 178 kts | 108° |
| 2026-04-25 18:42 | 17.31000 | -62.81009 | 12967 ft | 178 kts | 108° |
| 2026-04-25 18:43 | 17.30714 | -62.79748 | 12968 ft | 178 kts | 108° |
| 2026-04-25 18:43 | 17.30426 | -62.78485 | 12966 ft | 178 kts | 108° |
| 2026-04-25 18:43 | 17.30137 | -62.77217 | 12972 ft | 180 kts | 108° |
| 2026-04-25 18:43 | 17.29845 | -62.75940 | 12969 ft | 181 kts | 108° |
| 2026-04-25 18:44 | 17.29552 | -62.74660 | 12968 ft | 182 kts | 108° |
| 2026-04-25 18:44 | 17.29267 | -62.73368 | 12965 ft | 183 kts | 106° |
| 2026-04-25 18:44 | 17.29025 | -62.72063 | 12959 ft | 183 kts | 105° |
| 2026-04-25 18:44 | 17.28803 | -62.70759 | 12952 ft | 182 kts | 104° |
| 2026-04-25 18:45 | 17.28586 | -62.69457 | 12964 ft | 182 kts | 104° |
| 2026-04-25 18:45 | 17.28368 | -62.68152 | 12969 ft | 182 kts | 104° |
| 2026-04-25 18:45 | 17.28145 | -62.66846 | 12957 ft | 182 kts | 105° |
| 2026-04-25 18:45 | 17.27919 | -62.65549 | 12954 ft | 181 kts | 105° |
| 2026-04-25 18:46 | 17.27693 | -62.64256 | 12958 ft | 180 kts | 105° |
| 2026-04-25 18:46 | 17.27468 | -62.62975 | 12958 ft | 180 kts | 105° |
| 2026-04-25 18:46 | 17.27242 | -62.61694 | 12957 ft | 179 kts | 105° |
| 2026-04-25 18:46 | 17.27017 | -62.60418 | 12962 ft | 179 kts | 105° |
| 2026-04-25 18:47 | 17.26789 | -62.59139 | 12958 ft | 179 kts | 105° |
| 2026-04-25 18:47 | 17.26562 | -62.57859 | 12952 ft | 179 kts | 105° |
| 2026-04-25 18:47 | 17.26335 | -62.56578 | 12956 ft | 179 kts | 105° |
| 2026-04-25 18:47 | 17.26107 | -62.55298 | 12954 ft | 179 kts | 105° |
| 2026-04-25 18:48 | 17.25879 | -62.54016 | 12949 ft | 179 kts | 105° |
| 2026-04-25 18:48 | 17.25650 | -62.52733 | 12946 ft | 179 kts | 105° |
| 2026-04-25 18:48 | 17.25423 | -62.51451 | 12942 ft | 179 kts | 105° |
| 2026-04-25 18:48 | 17.25194 | -62.50170 | 12941 ft | 179 kts | 105° |
| 2026-04-25 18:49 | 17.24966 | -62.48892 | 12941 ft | 179 kts | 105° |
| 2026-04-25 18:49 | 17.24738 | -62.47611 | 12941 ft | 179 kts | 105° |
| 2026-04-25 18:49 | 17.24510 | -62.46330 | 12941 ft | 179 kts | 105° |
| 2026-04-25 18:49 | 17.24283 | -62.45056 | 12941 ft | 179 kts | 105° |
| 2026-04-25 18:50 | 17.24054 | -62.43785 | 12941 ft | 179 kts | 105° |
| 2026-04-25 18:50 | 17.23828 | -62.42514 | 12946 ft | 179 kts | 105° |
| 2026-04-25 18:50 | 17.23601 | -62.41239 | 12944 ft | 179 kts | 105° |
| 2026-04-25 18:50 | 17.23373 | -62.39961 | 12948 ft | 179 kts | 105° |
| 2026-04-25 18:51 | 17.23146 | -62.38687 | 12954 ft | 179 kts | 105° |
| 2026-04-25 18:51 | 17.22994 | -62.37840 | 12956 ft | 179 kts | 105° |
| 2026-04-25 18:51 | 17.22689 | -62.36132 | 12952 ft | 179 kts | 105° |
| 2026-04-25 18:51 | 17.22460 | -62.34856 | 12955 ft | 179 kts | 105° |
| 2026-04-25 18:52 | 17.22230 | -62.33580 | 12955 ft | 179 kts | 105° |
| 2026-04-25 18:52 | 17.22001 | -62.32303 | 12950 ft | 179 kts | 105° |
| 2026-04-25 18:52 | 17.21772 | -62.31024 | 12954 ft | 179 kts | 105° |
| 2026-04-25 18:52 | 17.21544 | -62.29747 | 12955 ft | 179 kts | 105° |
| 2026-04-25 18:53 | 17.21315 | -62.28470 | 12956 ft | 179 kts | 105° |
| 2026-04-25 18:53 | 17.21086 | -62.27194 | 12952 ft | 179 kts | 105° |
| 2026-04-25 18:53 | 17.20858 | -62.25921 | 12954 ft | 179 kts | 105° |
| 2026-04-25 18:53 | 17.20631 | -62.24650 | 12960 ft | 179 kts | 105° |
| 2026-04-25 18:54 | 17.20175 | -62.22102 | 12960 ft | 179 kts | 105° |
| 2026-04-25 18:54 | 17.19947 | -62.20831 | 12965 ft | 179 kts | 105° |
| 2026-04-25 18:54 | 17.19719 | -62.19562 | 12961 ft | 178 kts | 105° |
| 2026-04-25 18:55 | 17.19490 | -62.18286 | 12959 ft | 179 kts | 105° |
| 2026-04-25 18:55 | 17.19257 | -62.16997 | 12709 ft | 179 kts | 105° |
| 2026-04-25 18:55 | 17.19031 | -62.15731 | 12404 ft | 175 kts | 105° |
| 2026-04-25 18:55 | 17.18812 | -62.14491 | 12104 ft | 173 kts | 105° |
| 2026-04-25 18:56 | 17.18595 | -62.13263 | 11804 ft | 171 kts | 105° |
| 2026-04-25 18:56 | 17.18378 | -62.12046 | 11504 ft | 170 kts | 105° |
| 2026-04-25 18:56 | 17.18162 | -62.10836 | 11203 ft | 168 kts | 105° |
| 2026-04-25 18:56 | 17.17947 | -62.09637 | 10903 ft | 167 kts | 105° |
| 2026-04-25 18:57 | 17.17734 | -62.08448 | 10604 ft | 166 kts | 105° |
| 2026-04-25 18:57 | 17.17522 | -62.07267 | 10303 ft | 164 kts | 105° |
| 2026-04-25 18:57 | 17.17311 | -62.06098 | 10003 ft | 163 kts | 105° |
| 2026-04-25 18:57 | 17.17240 | -62.05706 | 9902 ft | 163 kts | 105° |
| 2026-04-25 18:58 | 17.16893 | -62.03778 | 9366 ft | 163 kts | 105° |
| 2026-04-25 18:58 | 17.16468 | -62.01445 | 8616 ft | 164 kts | 105° |
| 2026-04-25 18:58 | 17.16256 | -62.00284 | 8241 ft | 163 kts | 105° |
| 2026-04-25 18:59 | 17.15840 | -61.97980 | 7490 ft | 160 kts | 104° |
| 2026-04-25 18:59 | 17.15431 | -61.95700 | 6745 ft | 159 kts | 104° |
| 2026-04-25 19:00 | 17.15019 | -61.93443 | 6001 ft | 157 kts | 104° |
| 2026-04-25 19:00 | 17.14816 | -61.92323 | 5625 ft | 156 kts | 104° |
| 2026-04-25 19:01 | 17.14412 | -61.90110 | 4876 ft | 154 kts | 104° |
| 2026-04-25 19:01 | 17.14211 | -61.89015 | 4507 ft | 153 kts | 104° |
| 2026-04-25 19:01 | 17.14012 | -61.87923 | 4140 ft | 152 kts | 104° |
| 2026-04-25 19:01 | 17.13813 | -61.86841 | 3761 ft | 151 kts | 104° |
| 2026-04-25 19:02 | 17.13064 | -61.84894 | 3061 ft | 143 kts | 148° |
| 2026-04-25 19:02 | 17.12194 | -61.84625 | 3126 ft | 123 kts | 174° |
| 2026-04-25 19:02 | 17.11412 | -61.84491 | 3045 ft | 107 kts | 157° |
| 2026-04-25 19:03 | 17.10598 | -61.83944 | 2647 ft | 96 kts | 132° |
| 2026-04-25 19:03 | 17.11053 | -61.83161 | 1961 ft | 98 kts | 15° |
| 2026-04-25 19:03 | 17.11624 | -61.82834 | 1476 ft | 92 kts | 31° |
| 2026-04-25 19:04 | 17.12186 | -61.81811 | 777 ft | 74 kts | 50° |
| 2026-04-25 19:04 | 17.12451 | -61.81346 | 532 ft | 77 kts | 63° |
| 2026-04-25 19:05 | 17.13024 | -61.80367 | 123 ft | 76 kts | 62° |
| 2026-04-25 19:05 | 17.13468 | -61.79614 | 62 ft | 49 kts | 59° |
| 2026-04-25 19:05 | 17.13627 | -61.79346 | 68 ft | 35 kts | 55° |
| 2026-04-25 19:06 | 17.13717 | -61.79331 | 65 ft | 10 kts | 329° |
| 2026-04-25 19:06 | 17.13796 | -61.79272 | 58 ft | 13 kts | 56° |
| 2026-04-25 19:06 | 17.13867 | -61.79166 | 62 ft | 19 kts | 45° |
| 2026-04-25 19:07 | 17.14037 | -61.78979 | 58 ft | 26 kts | 60° |
| 2026-04-25 19:07 | 17.14111 | -61.78807 | 60 ft | 18 kts | 83° |
| 2026-04-25 19:08 | 17.14250 | -61.78869 | 55 ft | 0 kts | 65° |